sensor_id;sensor_type;location;lat;lon;timestamp;P1;durP1;ratioP1;P2;durP2;ratioP2
79792;SDS011;69279;49.072;17.462;2023-04-25T00:00:38;2.83;;;2.53;;
79792;SDS011;69279;49.072;17.462;2023-04-25T00:03:03;2.90;;;2.60;;
79792;SDS011;69279;49.072;17.462;2023-04-25T00:05:30;2.78;;;2.17;;
79792;SDS011;69279;49.072;17.462;2023-04-25T00:07:56;2.70;;;2.50;;
79792;SDS011;69279;49.072;17.462;2023-04-25T00:10:22;3.05;;;2.50;;
79792;SDS011;69279;49.072;17.462;2023-04-25T00:12:48;3.08;;;2.50;;
79792;SDS011;69279;49.072;17.462;2023-04-25T00:15:13;2.53;;;2.33;;
79792;SDS011;69279;49.072;17.462;2023-04-25T00:17:39;2.72;;;2.33;;
79792;SDS011;69279;49.072;17.462;2023-04-25T00:20:04;2.85;;;2.25;;
79792;SDS011;69279;49.072;17.462;2023-04-25T00:22:31;3.60;;;2.28;;
79792;SDS011;69279;49.072;17.462;2023-04-25T00:24:58;3.30;;;2.47;;
79792;SDS011;69279;49.072;17.462;2023-04-25T00:27:25;2.50;;;2.30;;
79792;SDS011;69279;49.072;17.462;2023-04-25T00:29:51;2.42;;;2.20;;
79792;SDS011;69279;49.072;17.462;2023-04-25T00:32:16;2.55;;;2.20;;
79792;SDS011;69279;49.072;17.462;2023-04-25T00:34:42;2.30;;;2.10;;
79792;SDS011;69279;49.072;17.462;2023-04-25T00:37:07;2.50;;;2.30;;
79792;SDS011;69279;49.072;17.462;2023-04-25T00:39:32;2.22;;;2.03;;
79792;SDS011;69279;49.072;17.462;2023-04-25T00:41:58;2.28;;;2.08;;
79792;SDS011;69279;49.072;17.462;2023-04-25T00:44:23;3.42;;;2.33;;
79792;SDS011;69279;49.072;17.462;2023-04-25T00:46:49;2.38;;;2.15;;
79792;SDS011;69279;49.072;17.462;2023-04-25T00:49:15;2.22;;;2.03;;
79792;SDS011;69279;49.072;17.462;2023-04-25T00:51:42;2.60;;;2.15;;
79792;SDS011;69279;49.072;17.462;2023-04-25T00:54:09;2.58;;;1.90;;
79792;SDS011;69279;49.072;17.462;2023-04-25T00:56:34;2.55;;;2.08;;
79792;SDS011;69279;49.072;17.462;2023-04-25T00:59:00;3.00;;;2.30;;
79792;SDS011;69279;49.072;17.462;2023-04-25T01:01:25;2.85;;;2.33;;
79792;SDS011;69279;49.072;17.462;2023-04-25T01:03:53;3.08;;;2.00;;
79792;SDS011;69279;49.072;17.462;2023-04-25T01:06:19;1.95;;;1.80;;
79792;SDS011;69279;49.072;17.462;2023-04-25T01:08:44;2.25;;;1.83;;
79792;SDS011;69279;49.072;17.462;2023-04-25T01:11:10;2.15;;;1.95;;
79792;SDS011;69279;49.072;17.462;2023-04-25T01:13:35;2.80;;;2.50;;
79792;SDS011;69279;49.072;17.462;2023-04-25T01:16:01;2.10;;;1.90;;
79792;SDS011;69279;49.072;17.462;2023-04-25T01:18:27;2.20;;;2.00;;
79792;SDS011;69279;49.072;17.462;2023-04-25T01:20:53;2.58;;;2.22;;
79792;SDS011;69279;49.072;17.462;2023-04-25T01:23:19;2.20;;;1.90;;
79792;SDS011;69279;49.072;17.462;2023-04-25T01:25:46;2.10;;;1.90;;
79792;SDS011;69279;49.072;17.462;2023-04-25T01:28:12;2.42;;;2.15;;
79792;SDS011;69279;49.072;17.462;2023-04-25T01:30:38;2.42;;;2.22;;
79792;SDS011;69279;49.072;17.462;2023-04-25T01:33:04;2.25;;;2.05;;
79792;SDS011;69279;49.072;17.462;2023-04-25T01:35:30;3.40;;;1.85;;
79792;SDS011;69279;49.072;17.462;2023-04-25T01:37:57;2.35;;;2.00;;
79792;SDS011;69279;49.072;17.462;2023-04-25T01:40:22;2.85;;;1.92;;
79792;SDS011;69279;49.072;17.462;2023-04-25T01:42:49;2.55;;;1.92;;
79792;SDS011;69279;49.072;17.462;2023-04-25T01:45:16;3.63;;;2.13;;
79792;SDS011;69279;49.072;17.462;2023-04-25T01:47:41;2.80;;;2.00;;
79792;SDS011;69279;49.072;17.462;2023-04-25T01:50:08;2.60;;;2.10;;
79792;SDS011;69279;49.072;17.462;2023-04-25T01:52:35;2.13;;;1.92;;
79792;SDS011;69279;49.072;17.462;2023-04-25T01:55:01;2.22;;;1.95;;
79792;SDS011;69279;49.072;17.462;2023-04-25T01:57:26;3.17;;;1.98;;
79792;SDS011;69279;49.072;17.462;2023-04-25T01:59:53;2.33;;;2.13;;
79792;SDS011;69279;49.072;17.462;2023-04-25T02:02:25;2.35;;;1.90;;
79792;SDS011;69279;49.072;17.462;2023-04-25T02:04:51;2.55;;;2.00;;
79792;SDS011;69279;49.072;17.462;2023-04-25T02:07:17;2.05;;;1.85;;
79792;SDS011;69279;49.072;17.462;2023-04-25T02:09:42;2.38;;;2.17;;
79792;SDS011;69279;49.072;17.462;2023-04-25T02:12:08;1.77;;;1.63;;
79792;SDS011;69279;49.072;17.462;2023-04-25T02:14:34;2.72;;;2.13;;
79792;SDS011;69279;49.072;17.462;2023-04-25T02:17:00;2.88;;;1.92;;
79792;SDS011;69279;49.072;17.462;2023-04-25T02:19:25;1.75;;;1.65;;
79792;SDS011;69279;49.072;17.462;2023-04-25T02:21:50;2.05;;;1.85;;
79792;SDS011;69279;49.072;17.462;2023-04-25T02:24:16;2.80;;;2.05;;
79792;SDS011;69279;49.072;17.462;2023-04-25T02:26:41;2.50;;;2.03;;
79792;SDS011;69279;49.072;17.462;2023-04-25T02:29:07;2.45;;;1.88;;
79792;SDS011;69279;49.072;17.462;2023-04-25T02:31:32;2.88;;;2.40;;
79792;SDS011;69279;49.072;17.462;2023-04-25T02:33:57;2.13;;;1.90;;
79792;SDS011;69279;49.072;17.462;2023-04-25T02:36:23;2.00;;;1.80;;
79792;SDS011;69279;49.072;17.462;2023-04-25T02:38:49;2.03;;;1.80;;
79792;SDS011;69279;49.072;17.462;2023-04-25T02:41:14;1.80;;;1.67;;
79792;SDS011;69279;49.072;17.462;2023-04-25T02:43:40;2.83;;;2.05;;
79792;SDS011;69279;49.072;17.462;2023-04-25T02:46:05;2.45;;;1.95;;
79792;SDS011;69279;49.072;17.462;2023-04-25T02:48:31;1.75;;;1.65;;
79792;SDS011;69279;49.072;17.462;2023-04-25T02:50:56;2.40;;;1.58;;
79792;SDS011;69279;49.072;17.462;2023-04-25T02:53:21;2.25;;;1.90;;
79792;SDS011;69279;49.072;17.462;2023-04-25T02:55:47;2.25;;;1.83;;
79792;SDS011;69279;49.072;17.462;2023-04-25T02:58:12;2.30;;;1.90;;
79792;SDS011;69279;49.072;17.462;2023-04-25T03:00:37;1.90;;;1.80;;
79792;SDS011;69279;49.072;17.462;2023-04-25T03:03:03;2.25;;;2.05;;
79792;SDS011;69279;49.072;17.462;2023-04-25T03:05:28;1.80;;;1.60;;
79792;SDS011;69279;49.072;17.462;2023-04-25T03:07:53;1.70;;;1.60;;
79792;SDS011;69279;49.072;17.462;2023-04-25T03:10:19;1.90;;;1.70;;
79792;SDS011;69279;49.072;17.462;2023-04-25T03:12:44;1.63;;;1.52;;
79792;SDS011;69279;49.072;17.462;2023-04-25T03:15:09;2.00;;;1.80;;
79792;SDS011;69279;49.072;17.462;2023-04-25T03:17:35;2.20;;;2.00;;
79792;SDS011;69279;49.072;17.462;2023-04-25T03:20:00;1.70;;;1.60;;
79792;SDS011;69279;49.072;17.462;2023-04-25T03:22:26;1.98;;;1.55;;
79792;SDS011;69279;49.072;17.462;2023-04-25T03:24:51;1.83;;;1.52;;
79792;SDS011;69279;49.072;17.462;2023-04-25T03:27:17;3.28;;;1.92;;
79792;SDS011;69279;49.072;17.462;2023-04-25T03:29:42;2.10;;;1.90;;
79792;SDS011;69279;49.072;17.462;2023-04-25T03:32:08;2.30;;;1.80;;
79792;SDS011;69279;49.072;17.462;2023-04-25T03:34:33;2.03;;;1.58;;
79792;SDS011;69279;49.072;17.462;2023-04-25T03:36:59;2.05;;;1.52;;
79792;SDS011;69279;49.072;17.462;2023-04-25T03:39:25;1.52;;;1.42;;
79792;SDS011;69279;49.072;17.462;2023-04-25T03:41:50;1.88;;;1.70;;
79792;SDS011;69279;49.072;17.462;2023-04-25T03:44:15;2.00;;;1.80;;
79792;SDS011;69279;49.072;17.462;2023-04-25T03:46:41;2.15;;;1.67;;
79792;SDS011;69279;49.072;17.462;2023-04-25T03:49:06;1.70;;;1.60;;
79792;SDS011;69279;49.072;17.462;2023-04-25T03:51:31;2.22;;;1.70;;
79792;SDS011;69279;49.072;17.462;2023-04-25T03:53:57;1.75;;;1.65;;
79792;SDS011;69279;49.072;17.462;2023-04-25T03:56:23;2.15;;;1.80;;
79792;SDS011;69279;49.072;17.462;2023-04-25T03:58:48;2.10;;;1.85;;
79792;SDS011;69279;49.072;17.462;2023-04-25T04:01:14;2.15;;;1.95;;
79792;SDS011;69279;49.072;17.462;2023-04-25T04:03:39;2.10;;;1.73;;
79792;SDS011;69279;49.072;17.462;2023-04-25T04:06:05;2.10;;;1.90;;
79792;SDS011;69279;49.072;17.462;2023-04-25T04:08:31;1.70;;;1.58;;
79792;SDS011;69279;49.072;17.462;2023-04-25T04:10:57;2.42;;;1.80;;
79792;SDS011;69279;49.072;17.462;2023-04-25T04:13:23;2.55;;;1.90;;
79792;SDS011;69279;49.072;17.462;2023-04-25T04:15:48;2.05;;;1.60;;
79792;SDS011;69279;49.072;17.462;2023-04-25T04:18:14;2.08;;;1.70;;
79792;SDS011;69279;49.072;17.462;2023-04-25T04:20:40;1.67;;;1.45;;
79792;SDS011;69279;49.072;17.462;2023-04-25T04:23:05;2.38;;;1.70;;
79792;SDS011;69279;49.072;17.462;2023-04-25T04:25:30;1.98;;;1.65;;
79792;SDS011;69279;49.072;17.462;2023-04-25T04:27:56;1.52;;;1.42;;
79792;SDS011;69279;49.072;17.462;2023-04-25T04:30:22;1.65;;;1.55;;
79792;SDS011;69279;49.072;17.462;2023-04-25T04:32:49;1.70;;;1.60;;
79792;SDS011;69279;49.072;17.462;2023-04-25T04:35:15;2.58;;;1.45;;
